Time;durP1;ratioP1;P1;durP2;ratioP2;P2;SDS_P1;SDS_P2;PMS_P1;PMS_P2;Temp;Humidity;BMP_temperature;BMP_pressure;BME280_temperature;BME280_humidity;BME280_pressure;Samples;Min_cycle;Max_cycle;Signal;HPM_P1;HPM_P2
2022/03/26 00:00:09;;;;;;;47.47;22.10;;;7.80;84.40;;;;;;5055239;28;20039;-67
2022/03/26 00:02:35;;;;;;;42.60;22.15;;;7.80;84.60;;;;;;5059730;28;20723;-66
2022/03/26 00:05:01;;;;;;;39.45;20.92;;;7.80;84.80;;;;;;5060644;28;20772;-66
2022/03/26 00:07:27;;;;;;;44.72;20.80;;;7.70;85.00;;;;;;5054151;28;20497;-66
2022/03/26 00:09:53;;;;;;;42.85;22.48;;;7.70;85.20;;;;;;5053333;28;20074;-66
2022/03/26 00:12:19;;;;;;;40.85;22.33;;;7.70;85.40;;;;;;5058165;28;20590;-66
2022/03/26 00:14:44;;;;;;;41.55;21.63;;;7.60;85.30;;;;;;5060816;28;20033;-66
2022/03/26 00:17:10;;;;;;;39.88;20.30;;;7.60;85.00;;;;;;5057800;28;20453;-66
2022/03/26 00:19:36;;;;;;;41.40;22.60;;;7.50;85.10;;;;;;5055906;28;20020;-66
2022/03/26 00:22:02;;;;;;;38.63;20.17;;;7.50;85.50;;;;;;5055444;28;20503;-66
2022/03/26 00:24:28;;;;;;;40.78;20.42;;;7.50;86.00;;;;;;5061175;28;20068;-66
2022/03/26 00:26:54;;;;;;;40.45;21.13;;;7.40;86.20;;;;;;5059236;28;20133;-66
2022/03/26 00:29:20;;;;;;;42.17;21.70;;;7.40;86.50;;;;;;5034527;28;20127;-66
2022/03/26 00:31:46;;;;;;;41.45;20.63;;;7.40;86.60;;;;;;5056654;28;20601;-66
2022/03/26 00:34:12;;;;;;;36.30;19.42;;;7.30;86.70;;;;;;5055819;28;20029;-66
2022/03/26 00:36:38;;;;;;;37.15;20.15;;;7.30;86.70;;;;;;5060205;28;20033;-67
2022/03/26 00:39:04;;;;;;;36.65;18.80;;;7.30;86.60;;;;;;5054910;28;20048;-66
2022/03/26 00:41:30;;;;;;;39.40;19.95;;;7.30;86.60;;;;;;5055495;28;20066;-67
2022/03/26 00:43:56;;;;;;;41.00;20.05;;;7.30;86.50;;;;;;5055421;28;20036;-67
2022/03/26 00:46:23;;;;;;;39.58;19.60;;;7.30;86.40;;;;;;5058385;28;20032;-67
2022/03/26 00:48:49;;;;;;;33.17;18.13;;;7.20;86.20;;;;;;5052342;28;20043;-66
2022/03/26 00:51:15;;;;;;;40.03;19.33;;;7.20;86.10;;;;;;5048572;28;20087;-67
2022/03/26 00:53:42;;;;;;;40.83;19.30;;;7.20;86.30;;;;;;5055899;28;20039;-67
2022/03/26 00:56:08;;;;;;;43.55;20.42;;;7.10;86.30;;;;;;5056333;28;20028;-66
2022/03/26 00:58:34;;;;;;;37.85;19.85;;;7.10;86.70;;;;;;5060086;28;20047;-67
2022/03/26 01:01:00;;;;;;;41.47;19.77;;;7.10;87.10;;;;;;5055059;28;20024;-67
2022/03/26 01:03:26;;;;;;;40.83;19.92;;;7.00;87.20;;;;;;5055589;28;20040;-67
2022/03/26 01:05:52;;;;;;;37.55;20.08;;;7.00;87.20;;;;;;5057859;28;20098;-67
2022/03/26 01:08:17;;;;;;;41.95;19.30;;;7.00;87.40;;;;;;5059640;28;20044;-67
2022/03/26 01:10:44;;;;;;;38.13;19.67;;;6.90;87.80;;;;;;5057830;28;20095;-65
2022/03/26 01:13:11;;;;;;;41.17;18.75;;;6.90;87.90;;;;;;5052167;28;20025;-67
2022/03/26 01:15:37;;;;;;;34.72;19.52;;;6.90;87.90;;;;;;5056448;28;20524;-68
2022/03/26 01:18:03;;;;;;;38.75;18.92;;;6.80;88.00;;;;;;5058266;28;20041;-65
2022/03/26 01:20:29;;;;;;;38.58;19.77;;;6.80;88.00;;;;;;5060128;28;20040;-65
2022/03/26 01:22:55;;;;;;;36.45;18.58;;;6.80;87.90;;;;;;5056639;28;20140;-66
2022/03/26 01:25:20;;;;;;;40.45;19.20;;;6.80;88.10;;;;;;5053878;28;20401;-68
2022/03/26 01:27:46;;;;;;;38.72;18.90;;;6.70;88.30;;;;;;5057645;28;20131;-68
2022/03/26 01:30:13;;;;;;;39.40;19.52;;;6.70;88.50;;;;;;5058229;28;20132;-66
2022/03/26 01:32:39;;;;;;;38.10;19.38;;;6.70;88.60;;;;;;5056127;28;20035;-65
2022/03/26 01:35:05;;;;;;;36.08;18.25;;;6.70;88.60;;;;;;5050648;28;20028;-65
2022/03/26 01:37:31;;;;;;;44.08;19.55;;;6.70;88.50;;;;;;5055580;28;20040;-68
2022/03/26 01:39:57;;;;;;;42.92;20.67;;;6.60;88.50;;;;;;5057462;28;20047;-68
2022/03/26 01:42:22;;;;;;;40.60;19.15;;;6.60;88.80;;;;;;5060772;28;20521;-68
2022/03/26 01:44:49;;;;;;;39.63;18.30;;;6.60;88.90;;;;;;5057072;28;20075;-68
2022/03/26 01:47:14;;;;;;;37.60;18.13;;;6.60;88.80;;;;;;5053917;28;20043;-68
2022/03/26 01:49:40;;;;;;;45.53;20.02;;;6.50;89.00;;;;;;5057893;28;20021;-66
2022/03/26 01:52:10;;;;;;;41.70;20.45;;;6.50;89.40;;;;;;5058836;28;20028;-68
2022/03/26 01:54:38;;;;;;;37.75;18.25;;;6.50;89.80;;;;;;5056925;28;20036;-66
2022/03/26 01:57:04;;;;;;;41.90;20.67;;;6.50;90.00;;;;;;5051178;28;20039;-66
2022/03/26 01:59:30;;;;;;;42.25;19.45;;;6.50;90.00;;;;;;5056032;28;20131;-66
2022/03/26 02:01:56;;;;;;;35.88;17.77;;;6.40;90.00;;;;;;5038355;28;20119;-66
2022/03/26 02:04:23;;;;;;;40.25;19.33;;;6.40;90.00;;;;;;5059694;28;20512;-66
2022/03/26 02:06:49;;;;;;;38.85;19.23;;;6.40;90.10;;;;;;5052160;28;20024;-66
2022/03/26 02:09:15;;;;;;;45.28;20.10;;;6.30;90.10;;;;;;5052602;28;20033;-66
2022/03/26 02:11:44;;;;;;;41.53;18.50;;;6.40;90.20;;;;;;5054550;28;20143;-66
2022/03/26 02:14:11;;;;;;;38.72;18.75;;;6.30;90.30;;;;;;5057297;28;20033;-66
2022/03/26 02:16:40;;;;;;;35.30;18.58;;;6.30;90.40;;;;;;5055958;28;20040;-66
2022/03/26 02:19:07;;;;;;;41.88;18.92;;;6.30;90.50;;;;;;5036813;28;20044;-66
2022/03/26 02:21:34;;;;;;;37.83;17.85;;;6.20;90.50;;;;;;5055527;28;20039;-66
2022/03/26 02:24:02;;;;;;;35.33;19.75;;;6.20;90.60;;;;;;5056816;28;20053;-66
2022/03/26 02:26:28;;;;;;;38.35;18.73;;;6.20;90.60;;;;;;5037352;28;20596;-66
2022/03/26 02:28:55;;;;;;;36.00;18.38;;;6.20;91.00;;;;;;5050890;28;20160;-66
2022/03/26 02:31:22;;;;;;;36.70;17.60;;;6.20;90.70;;;;;;5053763;28;20721;-66
2022/03/26 02:33:48;;;;;;;38.90;18.42;;;6.20;90.80;;;;;;5057892;28;20029;-66
2022/03/26 02:36:15;;;;;;;41.55;17.77;;;6.20;90.80;;;;;;5057553;28;20072;-66
2022/03/26 02:38:41;;;;;;;42.40;18.80;;;6.20;90.90;;;;;;5052145;28;20675;-66
2022/03/26 02:41:08;;;;;;;38.85;20.10;;;6.10;90.90;;;;;;5051089;28;20538;-66
2022/03/26 02:43:34;;;;;;;36.75;18.38;;;6.20;91.00;;;;;;5055506;28;20051;-66
2022/03/26 02:46:01;;;;;;;36.30;17.38;;;6.20;90.90;;;;;;5055910;28;20033;-66
2022/03/26 02:48:27;;;;;;;37.78;17.83;;;6.20;90.90;;;;;;5055971;28;20133;-65
2022/03/26 02:50:53;;;;;;;37.90;18.58;;;6.20;90.80;;;;;;5051184;28;20033;-66
2022/03/26 02:53:19;;;;;;;36.03;17.60;;;6.10;90.80;;;;;;5054400;28;20033;-66
2022/03/26 02:55:45;;;;;;;41.28;18.58;;;6.10;91.00;;;;;;5056376;28;20028;-66
2022/03/26 02:58:10;;;;;;;39.03;18.50;;;6.10;91.00;;;;;;5057723;28;20549;-66
2022/03/26 03:00:40;;;;;;;41.83;19.55;;;6.10;91.10;;;;;;5052998;28;20036;-66
2022/03/26 03:03:08;;;;;;;38.05;18.52;;;6.10;91.10;;;;;;5047924;28;20051;-68
2022/03/26 03:05:34;;;;;;;42.85;18.58;;;6.10;91.00;;;;;;5055312;28;20040;-68
2022/03/26 03:08:01;;;;;;;36.35;18.17;;;6.10;91.10;;;;;;5056714;28;20381;-67
2022/03/26 03:10:27;;;;;;;42.28;20.00;;;6.00;91.10;;;;;;5055464;28;20048;-68
2022/03/26 03:12:53;;;;;;;41.30;18.30;;;6.00;91.20;;;;;;5054593;28;20034;-68
2022/03/26 03:15:20;;;;;;;37.88;17.80;;;6.00;91.20;;;;;;5053650;28;20038;-65
2022/03/26 03:17:48;;;;;;;43.75;19.25;;;6.00;91.20;;;;;;5058707;28;20682;-68
2022/03/26 03:20:14;;;;;;;41.30;19.13;;;5.90;91.30;;;;;;5061858;28;20036;-68
2022/03/26 03:22:41;;;;;;;45.30;19.10;;;6.00;91.30;;;;;;5055909;28;20063;-67
2022/03/26 03:25:08;;;;;;;43.13;19.25;;;5.90;91.30;;;;;;5054995;28;20025;-68
2022/03/26 03:27:35;;;;;;;46.67;19.45;;;5.90;91.40;;;;;;5059140;28;20143;-68
2022/03/26 03:30:01;;;;;;;44.08;19.48;;;5.90;91.50;;;;;;5060439;28;20032;-69
2022/03/26 03:32:26;;;;;;;45.78;19.92;;;5.90;91.60;;;;;;5059356;28;20032;-68
2022/03/26 03:34:52;;;;;;;41.92;20.20;;;5.90;91.70;;;;;;5054713;28;20406;-68
2022/03/26 03:37:18;;;;;;;45.33;19.55;;;5.90;91.70;;;;;;5057654;28;20408;-68
2022/03/26 03:39:45;;;;;;;41.75;19.75;;;5.90;91.70;;;;;;5056302;28;20035;-68
2022/03/26 03:42:11;;;;;;;45.97;20.38;;;5.90;91.70;;;;;;5061534;28;20024;-67
2022/03/26 03:44:37;;;;;;;46.60;20.83;;;5.90;91.70;;;;;;5038533;28;20036;-67
2022/03/26 03:47:03;;;;;;;43.60;19.85;;;5.90;91.70;;;;;;5056745;28;20067;-68
2022/03/26 03:49:31;;;;;;;48.58;22.52;;;5.90;91.80;;;;;;5060548;28;20060;-67
2022/03/26 03:52:00;;;;;;;45.22;20.55;;;5.90;91.70;;;;;;5062748;28;20068;-68
2022/03/26 03:54:27;;;;;;;48.03;20.08;;;5.90;91.70;;;;;;5059082;28;20156;-68
2022/03/26 03:56:52;;;;;;;46.05;20.50;;;5.80;91.80;;;;;;5058293;28;20126;-67
2022/03/26 03:59:18;;;;;;;46.17;20.73;;;5.90;91.90;;;;;;5057722;28;20041;-68
2022/03/26 04:01:44;;;;;;;45.60;20.25;;;5.90;92.00;;;;;;5056398;28;20109;-68
2022/03/26 04:04:10;;;;;;;47.97;19.30;;;5.90;91.90;;;;;;5056188;28;20819;-67
2022/03/26 04:06:37;;;;;;;43.25;19.67;;;5.80;91.90;;;;;;5054311;28;20040;-68
2022/03/26 04:09:03;;;;;;;45.30;20.50;;;5.90;91.90;;;;;;5053030;28;20036;-68
2022/03/26 04:11:29;;;;;;;48.75;20.98;;;5.80;91.90;;;;;;5058765;28;20102;-68
2022/03/26 04:13:54;;;;;;;42.85;20.38;;;5.80;91.90;;;;;;5057167;28;20123;-67
2022/03/26 04:16:21;;;;;;;46.10;21.17;;;5.80;92.00;;;;;;5055964;28;20033;-68
2022/03/26 04:18:47;;;;;;;50.28;20.73;;;5.80;91.90;;;;;;5056758;28;20071;-67
2022/03/26 04:21:13;;;;;;;45.30;20.55;;;5.80;92.00;;;;;;5056172;28;20052;-67
2022/03/26 04:23:39;;;;;;;47.25;20.98;;;5.70;92.00;;;;;;5059609;28;20054;-67
2022/03/26 04:26:05;;;;;;;43.90;19.73;;;5.70;92.10;;;;;;5057176;28;20032;-68
2022/03/26 04:28:30;;;;;;;46.22;20.60;;;5.70;92.10;;;;;;5051223;28;20143;-67
2022/03/26 04:30:56;;;;;;;47.75;21.45;;;5.70;92.20;;;;;;5038761;28;20038;-67
2022/03/26 04:33:22;;;;;;;45.03;20.08;;;5.70;92.20;;;;;;5057636;28;20133;-67
2022/03/26 04:35:48;;;;;;;45.25;22.10;;;5.60;92.20;;;;;;5061265;28;20028;-68
2022/03/26 04:38:13;;;;;;;47.95;21.75;;;5.60;92.30;;;;;;5057720;28;20035;-67
2022/03/26 04:40:39;;;;;;;48.20;22.17;;;5.60;92.30;;;;;;5055723;28;20484;-67
2022/03/26 04:43:05;;;;;;;43.55;19.73;;;5.60;92.40;;;;;;5056272;28;20033;-67
2022/03/26 04:45:32;;;;;;;46.50;20.65;;;5.60;92.40;;;;;;5051704;28;20098;-67
2022/03/26 04:47:58;;;;;;;42.00;19.60;;;5.60;92.50;;;;;;5060936;28;20400;-67
2022/03/26 04:50:24;;;;;;;47.70;21.95;;;5.50;92.50;;;;;;5055092;28;20098;-67
2022/03/26 04:52:50;;;;;;;49.90;21.80;;;5.60;92.50;;;;;;5058891;28;20056;-67
2022/03/26 04:55:16;;;;;;;46.50;20.45;;;5.60;92.60;;;;;;5057512;28;20040;-67
2022/03/26 04:57:43;;;;;;;56.63;21.92;;;5.60;92.60;;;;;;5042541;28;20036;-68
2022/03/26 05:00:11;;;;;;;49.80;21.05;;;5.60;92.60;;;;;;5061086;28;20040;-68
2022/03/26 05:02:39;;;;;;;43.72;20.27;;;5.60;92.70;;;;;;5060990;28;20040;-68
2022/03/26 05:05:10;;;;;;;55.83;23.95;;;5.60;92.70;;;;;;5053525;28;20047;-67
2022/03/26 05:07:45;;;;;;;54.17;23.63;;;5.60;92.70;;;;;;5051586;28;20029;-67
2022/03/26 05:10:12;;;;;;;52.25;23.13;;;5.70;92.70;;;;;;5052737;28;20655;-67
2022/03/26 05:12:38;;;;;;;51.85;23.40;;;5.70;92.60;;;;;;5042558;28;20028;-68
2022/03/26 05:15:04;;;;;;;48.85;22.40;;;5.80;92.60;;;;;;5058356;28;20028;-67
2022/03/26 05:17:30;;;;;;;54.83;22.13;;;5.80;92.50;;;;;;5058362;28;20032;-68
2022/03/26 05:19:55;;;;;;;52.10;22.98;;;5.80;92.40;;;;;;5056009;28;20032;-67
2022/03/26 05:22:22;;;;;;;56.75;24.60;;;5.80;92.40;;;;;;5055678;28;20040;-67
2022/03/26 05:24:47;;;;;;;54.13;23.92;;;5.80;92.40;;;;;;5053715;28;20041;-67
2022/03/26 05:27:13;;;;;;;57.47;23.63;;;5.90;92.40;;;;;;5056639;28;20837;-67
2022/03/26 05:29:39;;;;;;;50.15;22.92;;;5.90;92.30;;;;;;5052062;28;20032;-68
2022/03/26 05:32:06;;;;;;;55.35;24.13;;;6.00;92.30;;;;;;5052818;28;20055;-68
2022/03/26 05:34:32;;;;;;;56.63;24.95;;;6.10;92.30;;;;;;5053486;28;20444;-67
2022/03/26 05:36:58;;;;;;;58.97;24.98;;;6.20;92.20;;;;;;5048536;28;20621;-67
2022/03/26 05:39:24;;;;;;;50.35;22.20;;;6.30;92.00;;;;;;5054008;28;20032;-67
2022/03/26 05:41:50;;;;;;;52.35;24.05;;;6.40;91.90;;;;;;5052925;28;20032;-67
2022/03/26 05:44:16;;;;;;;56.55;23.45;;;6.40;91.60;;;;;;5039465;28;20527;-67
2022/03/26 05:46:42;;;;;;;58.67;22.58;;;6.60;91.40;;;;;;5052132;28;20029;-67
2022/03/26 05:49:09;;;;;;;57.90;23.17;;;6.70;91.20;;;;;;5053863;28;20020;-67
2022/03/26 05:51:34;;;;;;;55.08;22.25;;;6.80;91.00;;;;;;5055249;28;20047;-66
2022/03/26 05:54:00;;;;;;;52.90;22.58;;;7.10;90.60;;;;;;5057641;28;20032;-67
2022/03/26 05:56:26;;;;;;;51.40;22.23;;;7.30;90.20;;;;;;5049559;28;20037;-67
2022/03/26 05:58:52;;;;;;;48.75;22.23;;;7.50;89.60;;;;;;5058054;28;20031;-67
2022/03/26 06:01:18;;;;;;;55.08;22.55;;;7.70;88.60;;;;;;5051193;28;20036;-67
2022/03/26 06:03:44;;;;;;;52.55;24.02;;;8.00;87.60;;;;;;5051888;28;20097;-68
2022/03/26 06:06:10;;;;;;;51.50;24.55;;;8.10;86.60;;;;;;5055974;28;20513;-67
2022/03/26 06:08:35;;;;;;;54.33;23.38;;;8.30;85.80;;;;;;5057747;28;20028;-67
2022/03/26 06:11:01;;;;;;;52.40;23.45;;;8.50;84.60;;;;;;5056075;28;20385;-68
2022/03/26 06:13:27;;;;;;;51.03;23.05;;;8.60;83.90;;;;;;5054995;28;20120;-68
2022/03/26 06:15:53;;;;;;;53.90;24.60;;;8.70;83.20;;;;;;5052212;28;20440;-68
2022/03/26 06:18:18;;;;;;;48.47;23.33;;;8.80;82.90;;;;;;5054215;28;20043;-67
2022/03/26 06:20:44;;;;;;;48.00;23.98;;;8.90;82.50;;;;;;5060307;28;20036;-67
2022/03/26 06:23:10;;;;;;;49.00;22.95;;;9.00;82.00;;;;;;5056581;28;20033;-67
2022/03/26 06:25:36;;;;;;;54.30;23.83;;;9.10;81.80;;;;;;5055083;28;20044;-68
2022/03/26 06:28:02;;;;;;;50.30;23.50;;;9.30;80.80;;;;;;5056937;28;20106;-67
2022/03/26 06:30:28;;;;;;;57.25;24.63;;;9.40;80.10;;;;;;5060512;28;20286;-67
2022/03/26 06:32:53;;;;;;;45.50;23.42;;;9.60;79.70;;;;;;5056499;28;20031;-67
2022/03/26 06:35:19;;;;;;;52.65;23.67;;;9.60;79.00;;;;;;5056343;28;20067;-67
2022/03/26 06:37:45;;;;;;;48.50;24.10;;;9.70;79.00;;;;;;5052556;28;20033;-68
2022/03/26 06:40:11;;;;;;;54.30;24.00;;;9.80;78.80;;;;;;5055888;28;20042;-67
2022/03/26 06:42:37;;;;;;;43.10;22.20;;;9.90;78.10;;;;;;5049811;28;20031;-67
2022/03/26 06:45:03;;;;;;;44.03;22.55;;;10.00;77.90;;;;;;5051742;28;20036;-66
2022/03/26 06:47:31;;;;;;;48.10;23.25;;;10.10;77.30;;;;;;5055784;28;20095;-68
2022/03/26 06:49:57;;;;;;;47.72;23.60;;;10.30;76.90;;;;;;5054755;28;20058;-67
2022/03/26 06:52:24;;;;;;;47.58;23.48;;;10.30;76.10;;;;;;5059604;28;20522;-67
2022/03/26 06:54:50;;;;;;;50.85;24.27;;;10.50;75.60;;;;;;5061131;28;20065;-68
2022/03/26 06:57:16;;;;;;;47.65;23.13;;;10.60;75.30;;;;;;5052951;28;20035;-67
2022/03/26 06:59:41;;;;;;;46.90;23.55;;;10.80;74.80;;;;;;5059905;28;20044;-67
2022/03/26 07:02:07;;;;;;;49.70;23.58;;;11.20;74.30;;;;;;5060706;28;20101;-66
2022/03/26 07:04:33;;;;;;;49.50;22.35;;;12.80;70.40;;;;;;5059593;28;20056;-68
2022/03/26 07:06:59;;;;;;;48.22;23.20;;;15.90;60.10;;;;;;5053907;28;20107;-66
2022/03/26 07:09:24;;;;;;;41.88;21.90;;;18.90;49.60;;;;;;5056598;28;20826;-66
2022/03/26 07:11:51;;;;;;;42.40;22.50;;;20.80;43.70;;;;;;5059732;28;20496;-66
2022/03/26 07:14:17;;;;;;;41.10;20.75;;;22.40;40.50;;;;;;5061163;28;20040;-66
2022/03/26 07:16:44;;;;;;;35.85;21.67;;;23.00;38.70;;;;;;5056268;28;20714;-66
2022/03/26 07:19:10;;;;;;;39.22;22.42;;;23.00;38.20;;;;;;5059659;28;20496;-66
2022/03/26 07:21:37;;;;;;;41.55;21.13;;;23.00;38.80;;;;;;5059352;28;20036;-66
2022/03/26 07:24:04;;;;;;;39.42;21.77;;;21.90;40.00;;;;;;5054209;28;20095;-66
2022/03/26 07:26:30;;;;;;;38.08;21.90;;;21.60;40.80;;;;;;5058080;28;20068;-66
2022/03/26 07:28:56;;;;;;;39.40;20.45;;;20.90;41.50;;;;;;5054199;28;20044;-66
2022/03/26 07:31:23;;;;;;;34.40;20.88;;;21.50;40.90;;;;;;5053200;28;20087;-66
2022/03/26 07:33:49;;;;;;;37.15;20.00;;;23.10;38.30;;;;;;5060364;28;20080;-66
2022/03/26 07:36:15;;;;;;;33.30;18.80;;;23.50;37.50;;;;;;5051409;28;20487;-66
2022/03/26 07:38:42;;;;;;;32.78;18.75;;;22.80;38.10;;;;;;5061699;28;20061;-66
2022/03/26 07:41:08;;;;;;;31.23;18.23;;;22.00;40.00;;;;;;5058819;28;20063;-66
2022/03/26 07:43:34;;;;;;;33.92;17.83;;;22.00;40.30;;;;;;5058501;28;20036;-66
2022/03/26 07:46:00;;;;;;;30.48;18.25;;;23.00;38.00;;;;;;5057678;28;20059;-68
2022/03/26 07:48:26;;;;;;;26.48;17.77;;;24.50;35.20;;;;;;5057266;28;20046;-66
2022/03/26 07:50:52;;;;;;;27.58;17.58;;;25.80;33.40;;;;;;5060971;28;20480;-65
2022/03/26 07:53:18;;;;;;;32.08;18.25;;;26.50;32.30;;;;;;5057789;28;20028;-66
2022/03/26 07:55:44;;;;;;;31.55;19.05;;;27.40;31.40;;;;;;5052599;28;20029;-68
2022/03/26 07:58:10;;;;;;;34.33;19.02;;;28.10;30.60;;;;;;5062228;28;20078;-66
2022/03/26 08:00:36;;;;;;;25.17;17.10;;;28.50;30.00;;;;;;5063223;28;20044;-66
2022/03/26 08:03:01;;;;;;;27.33;16.60;;;30.30;29.00;;;;;;5058788;28;20052;-66
2022/03/26 08:05:28;;;;;;;23.75;15.85;;;31.30;27.80;;;;;;5055290;28;20550;-66
2022/03/26 08:07:54;;;;;;;27.13;16.23;;;31.40;27.40;;;;;;5058065;28;20064;-67
2022/03/26 08:10:20;;;;;;;24.75;15.52;;;31.10;27.50;;;;;;5057398;28;20529;-68
2022/03/26 08:12:45;;;;;;;30.27;18.95;;;30.20;27.70;;;;;;5053354;28;20032;-68
2022/03/26 08:15:11;;;;;;;25.90;16.85;;;30.40;28.10;;;;;;5054290;28;20443;-68
2022/03/26 08:17:37;;;;;;;29.85;19.08;;;30.70;27.80;;;;;;5062378;28;20039;-69
2022/03/26 08:20:03;;;;;;;32.80;19.98;;;30.90;27.50;;;;;;5059441;28;20647;-68
2022/03/26 08:22:29;;;;;;;24.08;16.02;;;30.30;27.90;;;;;;5051188;28;20455;-68
2022/03/26 08:24:54;;;;;;;30.95;18.95;;;28.80;29.00;;;;;;5061857;28;20028;-68
2022/03/26 08:27:22;;;;;;;25.20;17.48;;;27.30;30.00;;;;;;5055854;28;20051;-71
2022/03/26 08:29:49;;;;;;;25.25;15.73;;;26.60;30.80;;;;;;5055458;28;20032;-69
2022/03/26 08:32:15;;;;;;;25.40;15.27;;;26.00;32.20;;;;;;5054266;28;20028;-69
2022/03/26 08:34:41;;;;;;;25.08;16.75;;;26.40;32.10;;;;;;5060104;28;20028;-67
2022/03/26 08:37:07;;;;;;;23.45;15.52;;;26.60;31.60;;;;;;5056517;28;20043;-68
2022/03/26 08:39:32;;;;;;;20.77;14.07;;;27.10;31.30;;;;;;5053079;28;20041;-68
2022/03/26 08:41:58;;;;;;;19.75;13.20;;;29.10;29.60;;;;;;5059737;28;20053;-68
2022/03/26 08:44:24;;;;;;;25.17;14.77;;;30.20;28.60;;;;;;5053544;28;20045;-68
2022/03/26 08:46:50;;;;;;;21.98;14.93;;;29.00;29.20;;;;;;5049931;28;20033;-68
2022/03/26 08:49:15;;;;;;;23.17;14.70;;;26.90;31.70;;;;;;5053303;28;20716;-68
2022/03/26 08:51:41;;;;;;;23.45;14.27;;;25.60;33.50;;;;;;5055194;28;20086;-68
2022/03/26 08:54:07;;;;;;;22.80;15.05;;;25.50;33.80;;;;;;5057181;28;20068;-67
2022/03/26 08:56:33;;;;;;;24.20;13.93;;;26.10;33.30;;;;;;5054967;28;20040;-65
2022/03/26 08:58:58;;;;;;;24.42;13.20;;;27.10;31.40;;;;;;5053622;28;20036;-69
2022/03/26 09:01:24;;;;;;;22.08;13.07;;;28.20;30.50;;;;;;5054725;28;20039;-69
2022/03/26 09:03:50;;;;;;;20.95;12.63;;;29.60;29.60;;;;;;5056293;28;20029;-66
2022/03/26 09:06:16;;;;;;;19.05;13.27;;;30.20;29.00;;;;;;5055261;28;20033;-68
2022/03/26 09:08:43;;;;;;;22.30;12.02;;;30.90;28.30;;;;;;5057049;28;20163;-70
2022/03/26 09:11:09;;;;;;;23.90;14.90;;;31.90;27.60;;;;;;5055188;28;20032;-68
2022/03/26 09:13:35;;;;;;;20.67;12.75;;;33.70;26.60;;;;;;5049771;28;20110;-68
2022/03/26 09:16:01;;;;;;;19.50;11.07;;;34.80;25.70;;;;;;5053954;28;20047;-68
2022/03/26 09:18:27;;;;;;;19.75;12.38;;;34.50;25.80;;;;;;5060714;28;20036;-68
2022/03/26 09:20:53;;;;;;;17.80;12.18;;;33.20;26.80;;;;;;5052696;28;20628;-66
2022/03/26 09:23:19;;;;;;;18.58;11.32;;;31.50;27.50;;;;;;5053605;28;20083;-68
2022/03/26 09:25:45;;;;;;;20.50;12.55;;;30.50;28.60;;;;;;5051659;28;20439;-67
2022/03/26 09:28:11;;;;;;;19.58;11.43;;;30.30;28.20;;;;;;5049185;28;20098;-66
2022/03/26 09:30:37;;;;;;;17.83;11.00;;;29.60;29.40;;;;;;5059020;28;20063;-70
2022/03/26 09:33:03;;;;;;;19.95;11.15;;;29.20;29.60;;;;;;5052483;28;20576;-69
2022/03/26 09:35:29;;;;;;;20.15;12.52;;;28.90;29.70;;;;;;5035492;28;20037;-67
2022/03/26 09:37:55;;;;;;;21.27;12.57;;;28.50;29.90;;;;;;5057229;28;20040;-67
2022/03/26 09:40:23;;;;;;;17.02;11.93;;;27.40;30.90;;;;;;5059457;28;20032;-68
2022/03/26 09:42:50;;;;;;;21.88;12.35;;;26.60;32.80;;;;;;5041363;28;20060;-66
2022/03/26 09:45:16;;;;;;;20.55;12.80;;;26.70;32.70;;;;;;5053434;28;20032;-69
2022/03/26 09:47:42;;;;;;;19.88;11.55;;;27.40;31.90;;;;;;5054355;28;20043;-69
2022/03/26 09:50:09;;;;;;;20.25;12.43;;;27.80;31.10;;;;;;5060514;28;20025;-69
2022/03/26 09:52:38;;;;;;;20.38;12.80;;;28.20;30.80;;;;;;5052773;28;20861;-68
2022/03/26 09:55:05;;;;;;;22.80;12.25;;;28.50;30.60;;;;;;5056932;28;20037;-68
2022/03/26 09:57:31;;;;;;;19.88;11.85;;;29.10;30.00;;;;;;5057523;28;20040;-69
2022/03/26 09:59:57;;;;;;;20.88;12.80;;;29.70;29.60;;;;;;5059608;28;20038;-69
2022/03/26 10:02:26;;;;;;;20.58;11.95;;;29.70;29.30;;;;;;5052302;28;20068;-69
2022/03/26 10:04:52;;;;;;;19.58;12.50;;;28.90;30.00;;;;;;5062557;28;20033;-69
2022/03/26 10:07:28;;;;;;;18.98;12.07;;;28.00;30.60;;;;;;5041163;28;20029;-69
2022/03/26 10:09:55;;;;;;;22.30;11.82;;;27.10;31.90;;;;;;5053440;28;20028;-70
2022/03/26 10:12:24;;;;;;;19.85;12.57;;;26.50;32.90;;;;;;5059770;28;20081;-69
2022/03/26 10:14:55;;;;;;;17.63;11.40;;;26.00;33.50;;;;;;5054061;28;20118;-69
2022/03/26 10:17:27;;;;;;;18.95;11.35;;;25.40;34.50;;;;;;5051081;28;20105;-69
2022/03/26 10:20:05;;;;;;;18.17;12.15;;;24.60;35.60;;;;;;5057042;28;20120;-69
2022/03/26 10:22:41;;;;;;;21.00;12.95;;;23.90;36.80;;;;;;5056838;28;20446;-69
2022/03/26 10:25:11;;;;;;;;;;;23.30;38.20;;;;;;5052492;28;20029;-69
2022/03/26 10:27:40;;;;;;;21.25;12.60;;;22.70;38.90;;;;;;5056076;28;19974;-69
2022/03/26 10:30:07;;;;;;;22.17;12.48;;;22.00;40.30;;;;;;5061725;28;20166;-69
2022/03/26 10:33:08;;;;;;;22.65;12.35;;;21.60;41.60;;;;;;5046653;28;20024;-69
2022/03/26 10:35:28;;;;;;;18.67;11.20;;;21.30;41.90;;;;;;5057890;28;20187;-71
2022/03/26 10:38:02;;;;;;;13.25;8.95;;;20.80;43.10;;;;;;5064666;28;20092;-69
2022/03/26 10:40:33;;;;;;;18.08;11.40;;;20.40;44.00;;;;;;5059227;28;20040;-69
2022/03/26 10:43:11;;;;;;;19.73;11.52;;;20.20;44.80;;;;;;5055320;28;20521;-69
2022/03/26 10:45:50;;;;;;;17.13;10.13;;;20.10;45.60;;;;;;5059660;28;20106;-71
2022/03/26 10:48:30;;;;;;;19.55;11.07;;;20.10;45.70;;;;;;5056309;28;20890;-70
2022/03/26 10:50:58;;;;;;;19.73;11.15;;;20.00;46.10;;;;;;5060931;28;20370;-70
2022/03/26 10:53:33;;;;;;;18.88;12.10;;;19.90;46.40;;;;;;5041973;28;20093;-71
2022/03/26 10:56:01;;;;;;;19.67;12.52;;;19.90;46.20;;;;;;5055780;28;20122;-71
2022/03/26 10:58:27;;;;;;;18.13;11.27;;;20.10;46.00;;;;;;5056566;28;20311;-71
2022/03/26 11:00:53;;;;;;;21.58;11.52;;;20.30;45.90;;;;;;5057660;28;20481;-72
2022/03/26 11:03:19;;;;;;;23.45;12.65;;;20.50;45.60;;;;;;5061329;28;20762;-70
2022/03/26 11:05:46;;;;;;;18.23;11.15;;;20.50;45.00;;;;;;5063037;28;20090;-69
2022/03/26 11:08:13;;;;;;;18.27;11.48;;;20.40;45.30;;;;;;5059628;28;20106;-69
2022/03/26 11:10:40;;;;;;;20.52;12.10;;;20.50;45.90;;;;;;5050569;28;20047;-69
2022/03/26 11:13:11;;;;;;;22.30;11.95;;;20.80;45.20;;;;;;5057648;28;20508;-69
2022/03/26 11:15:44;;;;;;;21.20;12.00;;;21.40;44.40;;;;;;5061068;28;20116;-69
2022/03/26 11:18:35;;;;;;;19.08;11.18;;;22.00;43.00;;;;;;5063030;28;20484;-70
2022/03/26 11:21:13;;;;;;;16.77;11.50;;;22.70;42.30;;;;;;5058276;28;20039;-69
2022/03/26 11:24:10;;;;;;;17.13;11.48;;;23.30;41.20;;;;;;5058146;28;20792;-69
2022/03/26 11:26:54;;;;;;;16.80;11.65;;;23.90;39.20;;;;;;5053279;28;20133;-69
2022/03/26 11:29:44;;;;;;;17.30;11.43;;;24.10;38.90;;;;;;5056075;28;20060;-69
2022/03/26 11:32:27;;;;;;;15.75;10.43;;;24.30;39.00;;;;;;5055392;28;20035;-69
2022/03/26 11:35:02;;;;;;;17.17;11.20;;;24.30;38.90;;;;;;5058095;28;20082;-69
2022/03/26 11:37:28;;;;;;;20.40;12.33;;;24.20;39.00;;;;;;5055035;28;20083;-69
2022/03/26 11:39:58;;;;;;;16.48;10.82;;;24.20;39.00;;;;;;5058442;28;20033;-69
2022/03/26 11:42:37;;;;;;;17.67;11.93;;;23.90;39.50;;;;;;5055824;28;20149;-69
2022/03/26 11:51:19;;;;;;;16.88;10.80;;;23.70;39.60;;;;;;5057705;28;20040;-68
2022/03/26 11:53:48;;;;;;;23.42;12.68;;;23.80;39.80;;;;;;5050672;28;20110;-68
2022/03/26 11:56:25;;;;;;;20.77;12.65;;;24.00;39.60;;;;;;5053761;28;20083;-69
2022/03/26 11:59:04;;;;;;;19.08;12.38;;;23.60;39.80;;;;;;5060263;28;20040;-69
2022/03/26 12:01:44;;;;;;;22.33;13.07;;;23.60;39.90;;;;;;5051938;28;20046;-68
2022/03/26 12:04:14;;;;;;;19.73;13.18;;;23.60;40.00;;;;;;5054199;28;20074;-68
2022/03/26 12:06:57;;;;;;;22.17;12.93;;;23.30;40.10;;;;;;5055469;28;20063;-69
2022/03/26 12:09:33;;;;;;;22.70;14.05;;;23.00;40.90;;;;;;5059964;28;20385;-69
2022/03/26 12:12:04;;;;;;;;;;;22.80;41.30;;;;;;5060442;28;20040;-68
2022/03/26 12:14:31;;;;;;;20.67;12.85;;;22.60;42.20;;;;;;5063401;28;20020;-69
2022/03/26 12:16:57;;;;;;;22.27;13.65;;;22.70;41.90;;;;;;5053534;28;20039;-68
2022/03/26 12:19:39;;;;;;;17.40;12.50;;;22.60;42.00;;;;;;5060124;28;20041;-68
2022/03/26 12:22:18;;;;;;;17.92;11.40;;;22.10;42.80;;;;;;5053776;28;20032;-68
2022/03/26 12:24:45;;;;;;;18.70;11.30;;;22.00;43.90;;;;;;5054273;28;20152;-68
2022/03/26 12:27:11;;;;;;;20.25;11.43;;;22.00;44.00;;;;;;5051975;28;20094;-68
2022/03/26 12:29:40;;;;;;;18.40;11.73;;;21.90;44.20;;;;;;5055310;28;20037;-68
2022/03/26 12:32:06;;;;;;;16.95;10.95;;;21.70;44.40;;;;;;5057200;28;20032;-68
2022/03/26 12:34:32;;;;;;;23.63;12.73;;;21.70;44.80;;;;;;5053572;28;20075;-68
2022/03/26 12:37:04;;;;;;;19.05;11.80;;;21.50;45.40;;;;;;5053299;28;20040;-69
2022/03/26 12:39:30;;;;;;;17.58;11.57;;;21.30;45.50;;;;;;5053590;28;20492;-68